Main page
METAR-TAF:

METAR-TAF

Airports :

Nice, France

Nice Côte d'Azur Airport

latitude: 43-39N, longitude: 007-12E, elevation: 4 m

Current weather observation

The report was made 23 minutes ago, at 21:30 UTC
Wind 8 kt from the Northwest
Temperature 13°C
Humidity 54%
Pressure 1013 hPa
Visibility 10 km or more
no clouds below 1500 m and no cumulonimbus

METAR: LFMN 282130Z 32008KT CAVOK 13/04 Q1013 NOSIG

Time: 23:53 (21:53 UTC)

Forecast

The report was made 1 hour and 53 minutes ago, at 20:00 UTC
Forecast valid from 28 at 21 UTC to 30 at 03 UTC
Wind 8 kt from the North/Northwest
Visibility 10 km or more
no clouds below 1500 m and no cumulonimbus
Becoming
from 29 at 07 UTC to 29 at 09 UTC
Wind 10 kt from the Southeast
Becoming
from 29 at 17 UTC to 29 at 19 UTC
Wind 10 kt from the North/Northwest

TAF: LFMN 282000Z 2821/3003 34008KT CAVOK BECMG 2907/2909 14010KT BECMG 2917/2919 34010KT

Weather observations and forecasts of more than 4000 airports (METAR and TAF reports).

The available stations are represented by yellow and red dots on the map.

Hover mouse over dot to see the name of the station.

Then click to see weather observations and forecasts.

To change the map : click on the green buttons with a black cross to zoom in, on the green button with a dash to zoom out, or on the green arrows for adjacent maps.


METAR-TAF: